sensor_id;sensor_type;location;lat;lon;timestamp;pressure;altitude;pressure_sealevel;temperature;humidity
44441;BME280;30146;52.268;20.944;2023-04-25T00:00:00;99052.86;;;13.51;53.94
44441;BME280;30146;52.268;20.944;2023-04-25T00:02:40;99051.59;;;13.48;53.90
44441;BME280;30146;52.268;20.944;2023-04-25T00:05:12;99053.56;;;13.46;54.06
44441;BME280;30146;52.268;20.944;2023-04-25T00:07:45;99056.85;;;13.45;54.28
44441;BME280;30146;52.268;20.944;2023-04-25T00:10:16;99056.08;;;13.44;54.37
44441;BME280;30146;52.268;20.944;2023-04-25T00:12:47;99050.27;;;13.43;54.48
44441;BME280;30146;52.268;20.944;2023-04-25T00:15:19;99045.27;;;13.39;54.38
44441;BME280;30146;52.268;20.944;2023-04-25T00:17:49;99048.86;;;13.36;54.53
44441;BME280;30146;52.268;20.944;2023-04-25T00:20:22;99047.75;;;13.34;54.85
44441;BME280;30146;52.268;20.944;2023-04-25T00:22:54;99052.05;;;13.33;55.03
44441;BME280;30146;52.268;20.944;2023-04-25T00:25:25;99047.51;;;13.31;55.07
44441;BME280;30146;52.268;20.944;2023-04-25T00:27:56;99049.75;;;13.30;55.25
44441;BME280;30146;52.268;20.944;2023-04-25T00:30:27;99048.45;;;13.28;55.25
44441;BME280;30146;52.268;20.944;2023-04-25T00:32:59;99047.48;;;13.27;55.33
44441;BME280;30146;52.268;20.944;2023-04-25T00:35:30;99051.53;;;13.24;55.45
44441;BME280;30146;52.268;20.944;2023-04-25T00:38:01;99052.64;;;13.22;55.46
44441;BME280;30146;52.268;20.944;2023-04-25T00:40:32;99053.25;;;13.20;55.65
44441;BME280;30146;52.268;20.944;2023-04-25T00:43:03;99050.73;;;13.19;55.70
44441;BME280;30146;52.268;20.944;2023-04-25T00:45:38;99052.48;;;13.18;55.95
44441;BME280;30146;52.268;20.944;2023-04-25T00:48:09;99051.70;;;13.16;56.10
44441;BME280;30146;52.268;20.944;2023-04-25T00:50:40;99054.27;;;13.16;56.14
44441;BME280;30146;52.268;20.944;2023-04-25T00:53:11;99049.63;;;13.16;56.32
44441;BME280;30146;52.268;20.944;2023-04-25T00:55:42;99051.58;;;13.15;56.34
44441;BME280;30146;52.268;20.944;2023-04-25T00:58:13;99053.23;;;13.12;56.44
44441;BME280;30146;52.268;20.944;2023-04-25T01:00:45;99058.23;;;13.11;56.59
44441;BME280;30146;52.268;20.944;2023-04-25T01:03:17;99058.27;;;13.10;56.74
44441;BME280;30146;52.268;20.944;2023-04-25T01:05:49;99057.84;;;13.08;56.74
44441;BME280;30146;52.268;20.944;2023-04-25T01:08:22;99053.61;;;13.07;56.86
44441;BME280;30146;52.268;20.944;2023-04-25T01:10:54;99051.23;;;13.06;56.98
44441;BME280;30146;52.268;20.944;2023-04-25T01:13:25;99054.91;;;13.04;57.21
44441;BME280;30146;52.268;20.944;2023-04-25T01:15:56;99061.35;;;13.02;57.27
44441;BME280;30146;52.268;20.944;2023-04-25T01:18:27;99057.31;;;13.00;57.38
44441;BME280;30146;52.268;20.944;2023-04-25T01:23:29;99054.46;;;12.98;57.71
44441;BME280;30146;52.268;20.944;2023-04-25T01:26:00;99053.63;;;12.97;57.89
44441;BME280;30146;52.268;20.944;2023-04-25T01:28:32;99054.73;;;12.96;58.02
44441;BME280;30146;52.268;20.944;2023-04-25T01:31:04;99052.40;;;12.94;58.26
44441;BME280;30146;52.268;20.944;2023-04-25T01:33:35;99053.95;;;12.94;58.32
44441;BME280;30146;52.268;20.944;2023-04-25T01:36:07;99052.27;;;12.93;58.53
44441;BME280;30146;52.268;20.944;2023-04-25T01:38:38;99052.30;;;12.93;58.72
44441;BME280;30146;52.268;20.944;2023-04-25T01:41:10;99051.84;;;12.90;58.72
44441;BME280;30146;52.268;20.944;2023-04-25T01:43:41;99049.71;;;12.88;58.84
44441;BME280;30146;52.268;20.944;2023-04-25T01:46:13;99049.11;;;12.86;58.96
44441;BME280;30146;52.268;20.944;2023-04-25T01:48:45;99055.73;;;12.84;59.08
44441;BME280;30146;52.268;20.944;2023-04-25T01:51:16;99053.11;;;12.81;59.24
44441;BME280;30146;52.268;20.944;2023-04-25T01:53:48;99050.07;;;12.79;59.43
44441;BME280;30146;52.268;20.944;2023-04-25T01:56:20;99054.42;;;12.78;59.59
44441;BME280;30146;52.268;20.944;2023-04-25T01:58:51;99047.42;;;12.77;59.66
44441;BME280;30146;52.268;20.944;2023-04-25T02:01:22;99050.18;;;12.76;59.85
44441;BME280;30146;52.268;20.944;2023-04-25T02:04:03;99048.79;;;12.77;60.00
44441;BME280;30146;52.268;20.944;2023-04-25T02:06:37;99052.56;;;12.77;60.06
44441;BME280;30146;52.268;20.944;2023-04-25T02:09:09;99052.76;;;12.76;60.12
44441;BME280;30146;52.268;20.944;2023-04-25T02:11:45;99055.33;;;12.76;60.20
44441;BME280;30146;52.268;20.944;2023-04-25T02:14:34;99052.45;;;12.76;60.23
44441;BME280;30146;52.268;20.944;2023-04-25T02:17:16;99047.01;;;12.74;60.34
44441;BME280;30146;52.268;20.944;2023-04-25T02:19:47;99047.68;;;12.75;60.49
44441;BME280;30146;52.268;20.944;2023-04-25T02:22:18;99043.91;;;12.74;60.59
44441;BME280;30146;52.268;20.944;2023-04-25T02:24:49;99044.90;;;12.75;60.71
44441;BME280;30146;52.268;20.944;2023-04-25T02:27:20;99044.36;;;12.76;60.70
44441;BME280;30146;52.268;20.944;2023-04-25T02:29:51;99041.46;;;12.76;60.75
44441;BME280;30146;52.268;20.944;2023-04-25T02:32:22;99039.79;;;12.75;60.84
44441;BME280;30146;52.268;20.944;2023-04-25T02:34:53;99036.55;;;12.74;60.90
44441;BME280;30146;52.268;20.944;2023-04-25T02:37:24;99033.13;;;12.74;60.99
44441;BME280;30146;52.268;20.944;2023-04-25T02:39:54;99033.54;;;12.72;61.10
44441;BME280;30146;52.268;20.944;2023-04-25T02:42:25;99035.09;;;12.72;61.12
44441;BME280;30146;52.268;20.944;2023-04-25T02:44:56;99035.52;;;12.70;61.13
44441;BME280;30146;52.268;20.944;2023-04-25T02:47:29;99033.53;;;12.68;61.25
44441;BME280;30146;52.268;20.944;2023-04-25T02:50:00;99037.73;;;12.66;61.33
44441;BME280;30146;52.268;20.944;2023-04-25T02:52:31;99037.09;;;12.64;61.33
44441;BME280;30146;52.268;20.944;2023-04-25T02:55:15;99040.94;;;12.63;61.48
44441;BME280;30146;52.268;20.944;2023-04-25T02:57:47;99041.34;;;12.61;61.47
44441;BME280;30146;52.268;20.944;2023-04-25T03:00:25;99040.07;;;12.59;61.50
44441;BME280;30146;52.268;20.944;2023-04-25T03:02:56;99037.61;;;12.56;61.45
44441;BME280;30146;52.268;20.944;2023-04-25T03:05:27;99033.56;;;12.54;61.59
44441;BME280;30146;52.268;20.944;2023-04-25T03:07:58;99031.63;;;12.51;61.66
44441;BME280;30146;52.268;20.944;2023-04-25T03:10:29;99032.03;;;12.49;61.67
44441;BME280;30146;52.268;20.944;2023-04-25T03:13:03;99029.81;;;12.48;61.89
44441;BME280;30146;52.268;20.944;2023-04-25T03:15:34;99032.23;;;12.48;61.98
44441;BME280;30146;52.268;20.944;2023-04-25T03:18:05;99030.48;;;12.49;62.01
44441;BME280;30146;52.268;20.944;2023-04-25T03:20:36;99028.23;;;12.49;62.13
44441;BME280;30146;52.268;20.944;2023-04-25T03:23:09;99030.61;;;12.50;62.10
44441;BME280;30146;52.268;20.944;2023-04-25T03:25:41;99032.84;;;12.50;62.20
44441;BME280;30146;52.268;20.944;2023-04-25T03:28:12;99035.23;;;12.50;62.28
44441;BME280;30146;52.268;20.944;2023-04-25T03:30:43;99037.10;;;12.50;62.26
44441;BME280;30146;52.268;20.944;2023-04-25T03:33:14;99039.17;;;12.50;62.32
44441;BME280;30146;52.268;20.944;2023-04-25T03:35:45;99042.96;;;12.50;62.25
44441;BME280;30146;52.268;20.944;2023-04-25T03:38:15;99042.30;;;12.49;62.35
44441;BME280;30146;52.268;20.944;2023-04-25T03:40:47;99047.07;;;12.50;62.51
44441;BME280;30146;52.268;20.944;2023-04-25T03:43:24;99048.02;;;12.52;62.59
44441;BME280;30146;52.268;20.944;2023-04-25T03:46:00;99051.08;;;12.53;62.59
44441;BME280;30146;52.268;20.944;2023-04-25T03:48:30;99053.59;;;12.55;62.62
44441;BME280;30146;52.268;20.944;2023-04-25T03:51:02;99052.52;;;12.56;62.63
44441;BME280;30146;52.268;20.944;2023-04-25T03:53:33;99055.76;;;12.56;62.65
44441;BME280;30146;52.268;20.944;2023-04-25T03:56:23;99056.24;;;12.57;62.68
44441;BME280;30146;52.268;20.944;2023-04-25T03:59:03;99059.25;;;12.59;62.77
44441;BME280;30146;52.268;20.944;2023-04-25T04:01:34;99062.27;;;12.60;62.81
44441;BME280;30146;52.268;20.944;2023-04-25T04:04:05;99060.82;;;12.63;62.80
44441;BME280;30146;52.268;20.944;2023-04-25T04:06:37;99061.98;;;12.64;62.82
44441;BME280;30146;52.268;20.944;2023-04-25T04:09:16;99064.50;;;12.65;62.80
44441;BME280;30146;52.268;20.944;2023-04-25T04:11:53;99069.09;;;12.66;62.86
44441;BME280;30146;52.268;20.944;2023-04-25T04:14:24;99070.89;;;12.68;62.84
44441;BME280;30146;52.268;20.944;2023-04-25T04:16:57;99074.63;;;12.69;62.91
44441;BME280;30146;52.268;20.944;2023-04-25T04:19:28;99077.10;;;12.72;62.94
44441;BME280;30146;52.268;20.944;2023-04-25T04:22:07;99077.80;;;12.71;62.88
44441;BME280;30146;52.268;20.944;2023-04-25T04:24:38;99076.98;;;12.70;62.96
44441;BME280;30146;52.268;20.944;2023-04-25T04:27:10;99079.01;;;12.71;63.00
44441;BME280;30146;52.268;20.944;2023-04-25T04:29:54;99075.23;;;12.71;63.12
44441;BME280;30146;52.268;20.944;2023-04-25T04:32:33;99081.35;;;12.73;63.22
44441;BME280;30146;52.268;20.944;2023-04-25T04:35:08;99078.30;;;12.76;63.35
44441;BME280;30146;52.268;20.944;2023-04-25T04:37:40;99079.26;;;12.78;63.40
44441;BME280;30146;52.268;20.944;2023-04-25T04:40:14;99080.89;;;12.80;63.36
44441;BME280;30146;52.268;20.944;2023-04-25T04:42:55;99077.39;;;12.82;63.47
44441;BME280;30146;52.268;20.944;2023-04-25T04:45:33;99074.01;;;12.85;63.63
44441;BME280;30146;52.268;20.944;2023-04-25T04:48:10;99074.21;;;12.89;63.74
44441;BME280;30146;52.268;20.944;2023-04-25T04:51:05;99076.33;;;12.92;63.68
44441;BME280;30146;52.268;20.944;2023-04-25T04:53:56;99074.23;;;12.93;63.67
44441;BME280;30146;52.268;20.944;2023-04-25T04:56:58;99077.05;;;12.95;63.71
44441;BME280;30146;52.268;20.944;2023-04-25T04:59:52;99080.98;;;12.96;63.62
44441;BME280;30146;52.268;20.944;2023-04-25T05:02:45;99083.25;;;12.95;63.64
44441;BME280;30146;52.268;20.944;2023-04-25T05:05:35;99087.10;;;12.93;63.85
44441;BME280;30146;52.268;20.944;2023-04-25T05:08:34;99088.13;;;12.93;63.67
44441;BME280;30146;52.268;20.944;2023-04-25T05:11:26;99091.94;;;12.92;63.81
44441;BME280;30146;52.268;20.944;2023-04-25T05:14:16;99094.18;;;12.91;63.88
44441;BME280;30146;52.268;20.944;2023-04-25T05:17:05;99093.30;;;12.92;63.89
44441;BME280;30146;52.268;20.944;2023-04-25T05:19:44;99091.26;;;12.92;63.87
44441;BME280;30146;52.268;20.944;2023-04-25T05:22:41;99085.23;;;12.92;64.02
44441;BME280;30146;52.268;20.944;2023-04-25T05:25:20;99089.32;;;12.93;64.09
44441;BME280;30146;52.268;20.944;2023-04-25T05:28:29;99088.44;;;12.94;64.22
44441;BME280;30146;52.268;20.944;2023-04-25T05:31:16;99091.50;;;12.94;64.15
44441;BME280;30146;52.268;20.944;2023-04-25T05:33:55;99095.56;;;12.96;64.24
44441;BME280;30146;52.268;20.944;2023-04-25T05:36:35;99107.05;;;12.96;64.17
44441;BME280;30146;52.268;20.944;2023-04-25T05:39:07;99109.48;;;12.95;64.15
44441;BME280;30146;52.268;20.944;2023-04-25T05:42:05;99112.48;;;12.93;64.14
44441;BME280;30146;52.268;20.944;2023-04-25T05:44:53;99109.56;;;12.93;64.23
44441;BME280;30146;52.268;20.944;2023-04-25T05:47:47;99111.77;;;12.94;64.26
44441;BME280;30146;52.268;20.944;2023-04-25T05:50:26;99104.38;;;12.94;64.13
44441;BME280;30146;52.268;20.944;2023-04-25T05:53:02;99095.41;;;12.95;64.30
44441;BME280;30146;52.268;20.944;2023-04-25T05:55:44;99101.59;;;12.95;64.29
44441;BME280;30146;52.268;20.944;2023-04-25T05:58:24;99107.11;;;12.94;64.30
44441;BME280;30146;52.268;20.944;2023-04-25T06:00:56;99107.31;;;12.94;64.28
44441;BME280;30146;52.268;20.944;2023-04-25T06:03:28;99108.45;;;12.95;64.42
44441;BME280;30146;52.268;20.944;2023-04-25T06:06:00;99108.23;;;12.96;64.35
44441;BME280;30146;52.268;20.944;2023-04-25T06:08:32;99115.34;;;12.98;64.37
44441;BME280;30146;52.268;20.944;2023-04-25T06:11:08;99118.73;;;12.99;64.44
44441;BME280;30146;52.268;20.944;2023-04-25T06:13:39;99119.39;;;13.01;64.37
44441;BME280;30146;52.268;20.944;2023-04-25T06:16:10;99119.88;;;13.01;64.38
44441;BME280;30146;52.268;20.944;2023-04-25T06:18:41;99122.64;;;13.01;64.37
44441;BME280;30146;52.268;20.944;2023-04-25T06:21:12;99123.81;;;13.01;64.35
44441;BME280;30146;52.268;20.944;2023-04-25T06:23:47;99129.84;;;13.01;64.25
44441;BME280;30146;52.268;20.944;2023-04-25T06:26:23;99134.94;;;13.02;64.37
44441;BME280;30146;52.268;20.944;2023-04-25T06:28:54;99141.15;;;13.01;64.26
44441;BME280;30146;52.268;20.944;2023-04-25T06:31:25;99144.67;;;12.99;64.15
44441;BME280;30146;52.268;20.944;2023-04-25T06:34:04;99150.93;;;12.97;64.11
44441;BME280;30146;52.268;20.944;2023-04-25T06:36:38;99156.99;;;12.95;64.15
44441;BME280;30146;52.268;20.944;2023-04-25T06:39:16;99163.63;;;12.92;64.21
44441;BME280;30146;52.268;20.944;2023-04-25T06:41:51;99171.27;;;12.89;64.13
44441;BME280;30146;52.268;20.944;2023-04-25T06:44:41;99177.51;;;12.87;64.26
44441;BME280;30146;52.268;20.944;2023-04-25T06:47:14;99176.64;;;12.83;64.21
44441;BME280;30146;52.268;20.944;2023-04-25T06:49:45;99175.41;;;12.79;64.27
44441;BME280;30146;52.268;20.944;2023-04-25T06:52:19;99171.50;;;12.74;64.25
44441;BME280;30146;52.268;20.944;2023-04-25T06:54:50;99168.61;;;12.68;64.21
44441;BME280;30146;52.268;20.944;2023-04-25T06:57:33;99163.67;;;12.63;64.06
44441;BME280;30146;52.268;20.944;2023-04-25T07:00:23;99162.17;;;12.57;64.11
44441;BME280;30146;52.268;20.944;2023-04-25T07:02:56;99162.42;;;12.55;64.15
44441;BME280;30146;52.268;20.944;2023-04-25T07:05:27;99166.10;;;12.53;64.12
44441;BME280;30146;52.268;20.944;2023-04-25T07:08:00;99162.54;;;12.56;64.32
44441;BME280;30146;52.268;20.944;2023-04-25T07:10:31;99159.55;;;12.63;64.63
44441;BME280;30146;52.268;20.944;2023-04-25T07:13:03;99155.02;;;12.75;64.72
44441;BME280;30146;52.268;20.944;2023-04-25T07:15:34;99152.96;;;12.88;64.72
44441;BME280;30146;52.268;20.944;2023-04-25T07:18:14;99148.77;;;13.04;64.70
44441;BME280;30146;52.268;20.944;2023-04-25T07:20:45;99147.70;;;13.27;64.61
44441;BME280;30146;52.268;20.944;2023-04-25T07:23:16;99150.62;;;13.53;64.76
44441;BME280;30146;52.268;20.944;2023-04-25T07:25:48;99149.56;;;13.83;64.87
44441;BME280;30146;52.268;20.944;2023-04-25T07:28:26;99150.61;;;14.11;64.53
44441;BME280;30146;52.268;20.944;2023-04-25T07:30:57;99145.84;;;14.30;64.00
44441;BME280;30146;52.268;20.944;2023-04-25T07:33:28;99145.58;;;14.44;63.52
44441;BME280;30146;52.268;20.944;2023-04-25T07:35:59;99150.76;;;14.55;63.23
44441;BME280;30146;52.268;20.944;2023-04-25T07:38:36;99152.33;;;14.67;63.03
44441;BME280;30146;52.268;20.944;2023-04-25T07:41:27;99149.27;;;14.80;62.98
44441;BME280;30146;52.268;20.944;2023-04-25T07:43:58;99153.02;;;14.96;62.71
44441;BME280;30146;52.268;20.944;2023-04-25T07:46:29;99156.00;;;15.18;62.87
44441;BME280;30146;52.268;20.944;2023-04-25T07:49:00;99160.88;;;15.38;62.62
44441;BME280;30146;52.268;20.944;2023-04-25T07:51:32;99162.91;;;15.53;62.22
44441;BME280;30146;52.268;20.944;2023-04-25T07:54:08;99166.34;;;15.60;61.87
44441;BME280;30146;52.268;20.944;2023-04-25T07:56:40;99166.52;;;15.64;61.48
44441;BME280;30146;52.268;20.944;2023-04-25T07:59:25;99170.83;;;15.61;60.65
44441;BME280;30146;52.268;20.944;2023-04-25T08:01:59;99167.33;;;15.54;60.34
44441;BME280;30146;52.268;20.944;2023-04-25T08:04:30;99166.53;;;15.46;60.02
44441;BME280;30146;52.268;20.944;2023-04-25T08:07:06;99162.31;;;15.33;59.87
44441;BME280;30146;52.268;20.944;2023-04-25T08:09:43;99171.77;;;15.22;59.81
44441;BME280;30146;52.268;20.944;2023-04-25T08:12:20;99167.95;;;15.05;59.56
44441;BME280;30146;52.268;20.944;2023-04-25T08:14:54;99169.91;;;14.95;59.70
44441;BME280;30146;52.268;20.944;2023-04-25T08:17:26;99172.70;;;14.88;59.75
44441;BME280;30146;52.268;20.944;2023-04-25T08:19:57;99174.27;;;14.79;59.59
44441;BME280;30146;52.268;20.944;2023-04-25T08:22:31;99175.87;;;14.71;59.46
44441;BME280;30146;52.268;20.944;2023-04-25T08:25:39;99175.23;;;14.62;59.69
44441;BME280;30146;52.268;20.944;2023-04-25T08:28:13;99171.75;;;14.55;59.76
44441;BME280;30146;52.268;20.944;2023-04-25T08:30:45;99172.70;;;14.45;59.67
44441;BME280;30146;52.268;20.944;2023-04-25T08:33:19;99178.70;;;14.37;59.98
44441;BME280;30146;52.268;20.944;2023-04-25T08:36:15;99183.92;;;14.32;60.17
44441;BME280;30146;52.268;20.944;2023-04-25T08:39:09;99191.15;;;14.23;60.11
44441;BME280;30146;52.268;20.944;2023-04-25T08:41:47;99191.65;;;14.12;59.95
44441;BME280;30146;52.268;20.944;2023-04-25T08:44:18;99196.67;;;13.98;59.88
44441;BME280;30146;52.268;20.944;2023-04-25T08:46:50;99201.98;;;13.87;60.02
44441;BME280;30146;52.268;20.944;2023-04-25T08:49:34;99205.04;;;13.79;60.15
44441;BME280;30146;52.268;20.944;2023-04-25T08:52:06;99205.10;;;13.77;60.48
44441;BME280;30146;52.268;20.944;2023-04-25T08:54:39;99206.94;;;13.79;60.73
44441;BME280;30146;52.268;20.944;2023-04-25T08:57:16;99215.32;;;13.80;60.80
44441;BME280;30146;52.268;20.944;2023-04-25T08:59:48;99219.79;;;13.75;60.40
44441;BME280;30146;52.268;20.944;2023-04-25T09:02:20;99224.47;;;13.65;60.25
44441;BME280;30146;52.268;20.944;2023-04-25T09:04:52;99229.38;;;13.54;60.19
44441;BME280;30146;52.268;20.944;2023-04-25T09:07:25;99233.34;;;13.45;60.32
44441;BME280;30146;52.268;20.944;2023-04-25T09:09:56;99237.27;;;13.37;60.32
44441;BME280;30146;52.268;20.944;2023-04-25T09:12:30;99237.63;;;13.32;60.60
44441;BME280;30146;52.268;20.944;2023-04-25T09:15:08;99238.48;;;13.26;60.66
44441;BME280;30146;52.268;20.944;2023-04-25T09:18:00;99242.11;;;13.21;60.67
44441;BME280;30146;52.268;20.944;2023-04-25T09:20:42;99238.30;;;13.18;60.87
44441;BME280;30146;52.268;20.944;2023-04-25T09:23:38;99239.01;;;13.13;60.85
44441;BME280;30146;52.268;20.944;2023-04-25T09:26:22;99237.67;;;13.07;60.81
44441;BME280;30146;52.268;20.944;2023-04-25T09:29:07;99237.45;;;13.04;60.97
44441;BME280;30146;52.268;20.944;2023-04-25T09:31:41;99237.45;;;13.03;61.23
44441;BME280;30146;52.268;20.944;2023-04-25T09:34:16;99239.30;;;13.05;61.29
44441;BME280;30146;52.268;20.944;2023-04-25T09:36:55;99242.06;;;13.04;61.29
44441;BME280;30146;52.268;20.944;2023-04-25T09:39:55;99247.41;;;13.03;61.15
44441;BME280;30146;52.268;20.944;2023-04-25T09:42:28;99254.22;;;13.01;61.09
44441;BME280;30146;52.268;20.944;2023-04-25T09:45:01;99256.05;;;12.97;61.17
44441;BME280;30146;52.268;20.944;2023-04-25T09:47:39;99255.29;;;12.95;61.30
44441;BME280;30146;52.268;20.944;2023-04-25T09:50:17;99260.00;;;12.92;61.28
44441;BME280;30146;52.268;20.944;2023-04-25T09:53:05;99263.32;;;12.90;61.29
44441;BME280;30146;52.268;20.944;2023-04-25T09:55:57;99264.58;;;12.89;61.52
44441;BME280;30146;52.268;20.944;2023-04-25T09:58:30;99269.58;;;12.88;61.48
44441;BME280;30146;52.268;20.944;2023-04-25T10:01:05;99271.61;;;12.89;61.56
44441;BME280;30146;52.268;20.944;2023-04-25T10:04:13;99272.29;;;12.89;61.73
44441;BME280;30146;52.268;20.944;2023-04-25T10:06:52;99276.00;;;12.91;61.70
44441;BME280;30146;52.268;20.944;2023-04-25T10:09:27;99272.20;;;12.92;61.71
44441;BME280;30146;52.268;20.944;2023-04-25T10:12:01;99274.07;;;12.92;61.74
44441;BME280;30146;52.268;20.944;2023-04-25T10:14:34;99274.36;;;12.94;61.86
44441;BME280;30146;52.268;20.944;2023-04-25T10:17:05;99272.45;;;12.95;61.81
44441;BME280;30146;52.268;20.944;2023-04-25T10:19:40;99272.59;;;12.96;61.88
44441;BME280;30146;52.268;20.944;2023-04-25T10:22:14;99272.21;;;12.96;62.01
44441;BME280;30146;52.268;20.944;2023-04-25T10:24:48;99274.13;;;12.95;62.01
44441;BME280;30146;52.268;20.944;2023-04-25T10:27:20;99276.43;;;12.93;62.04
44441;BME280;30146;52.268;20.944;2023-04-25T10:30:04;99277.77;;;12.89;61.91
44441;BME280;30146;52.268;20.944;2023-04-25T10:32:36;99278.02;;;12.87;62.00
44441;BME280;30146;52.268;20.944;2023-04-25T10:35:19;99279.63;;;12.86;61.99
44441;BME280;30146;52.268;20.944;2023-04-25T10:38:08;99278.77;;;12.85;61.95
44441;BME280;30146;52.268;20.944;2023-04-25T10:40:40;99276.39;;;12.85;62.15
44441;BME280;30146;52.268;20.944;2023-04-25T10:43:34;99276.38;;;12.85;62.19
44441;BME280;30146;52.268;20.944;2023-04-25T10:46:14;99275.96;;;12.87;62.33
44441;BME280;30146;52.268;20.944;2023-04-25T10:48:52;99275.58;;;12.88;62.36
44441;BME280;30146;52.268;20.944;2023-04-25T10:51:28;99273.89;;;12.88;62.23
44441;BME280;30146;52.268;20.944;2023-04-25T10:54:19;99275.28;;;12.87;62.12
44441;BME280;30146;52.268;20.944;2023-04-25T10:56:55;99274.73;;;12.88;62.30
44441;BME280;30146;52.268;20.944;2023-04-25T10:59:32;99274.30;;;12.90;62.35
44441;BME280;30146;52.268;20.944;2023-04-25T11:02:12;99280.48;;;12.95;62.55
44441;BME280;30146;52.268;20.944;2023-04-25T11:04:44;99276.58;;;12.99;62.32
44441;BME280;30146;52.268;20.944;2023-04-25T11:07:29;99275.81;;;13.01;62.46
44441;BME280;30146;52.268;20.944;2023-04-25T11:10:06;99276.70;;;13.05;62.43
44441;BME280;30146;52.268;20.944;2023-04-25T11:12:40;99281.10;;;13.06;62.21
44441;BME280;30146;52.268;20.944;2023-04-25T11:15:11;99280.80;;;13.10;62.18
44441;BME280;30146;52.268;20.944;2023-04-25T11:17:42;99281.55;;;13.13;61.99
44441;BME280;30146;52.268;20.944;2023-04-25T11:20:16;99279.38;;;13.16;61.97
44441;BME280;30146;52.268;20.944;2023-04-25T11:22:50;99281.12;;;13.20;62.07
44441;BME280;30146;52.268;20.944;2023-04-25T11:25:26;99283.05;;;13.24;61.90
44441;BME280;30146;52.268;20.944;2023-04-25T11:28:00;99284.80;;;13.27;61.74
44441;BME280;30146;52.268;20.944;2023-04-25T11:30:39;99283.09;;;13.32;61.88
44441;BME280;30146;52.268;20.944;2023-04-25T11:33:11;99283.75;;;13.38;61.96
44441;BME280;30146;52.268;20.944;2023-04-25T11:35:43;99282.20;;;13.42;61.72
44441;BME280;30146;52.268;20.944;2023-04-25T11:38:14;99279.85;;;13.45;61.57
44441;BME280;30146;52.268;20.944;2023-04-25T11:40:45;99277.85;;;13.48;61.43
44441;BME280;30146;52.268;20.944;2023-04-25T11:43:21;99276.41;;;13.50;61.26
44441;BME280;30146;52.268;20.944;2023-04-25T11:45:54;99276.06;;;13.50;61.12
44441;BME280;30146;52.268;20.944;2023-04-25T11:48:26;99278.74;;;13.52;61.27
44441;BME280;30146;52.268;20.944;2023-04-25T11:50:59;99277.15;;;13.54;61.11
44441;BME280;30146;52.268;20.944;2023-04-25T11:53:30;99280.44;;;13.52;60.77
44441;BME280;30146;52.268;20.944;2023-04-25T11:56:10;99275.27;;;13.48;60.44
44441;BME280;30146;52.268;20.944;2023-04-25T11:58:58;99278.48;;;13.45;60.36
44441;BME280;30146;52.268;20.944;2023-04-25T12:01:32;99274.15;;;13.42;60.47
44441;BME280;30146;52.268;20.944;2023-04-25T12:04:13;99277.17;;;13.39;60.41
44441;BME280;30146;52.268;20.944;2023-04-25T12:06:47;99278.51;;;13.36;60.47
44441;BME280;30146;52.268;20.944;2023-04-25T12:09:19;99275.82;;;13.34;60.47
44441;BME280;30146;52.268;20.944;2023-04-25T12:11:56;99276.72;;;13.33;60.37
44441;BME280;30146;52.268;20.944;2023-04-25T12:14:28;99276.92;;;13.33;60.43
44441;BME280;30146;52.268;20.944;2023-04-25T12:17:01;99272.09;;;13.33;60.72
44441;BME280;30146;52.268;20.944;2023-04-25T12:19:36;99277.16;;;13.35;60.56
44441;BME280;30146;52.268;20.944;2023-04-25T12:22:22;99272.70;;;13.35;60.21
44441;BME280;30146;52.268;20.944;2023-04-25T12:24:54;99273.61;;;13.34;59.86
44441;BME280;30146;52.268;20.944;2023-04-25T12:27:28;99272.81;;;13.32;59.60
44441;BME280;30146;52.268;20.944;2023-04-25T12:29:59;99274.52;;;13.27;59.32
44441;BME280;30146;52.268;20.944;2023-04-25T12:32:30;99270.52;;;13.23;59.48
44441;BME280;30146;52.268;20.944;2023-04-25T12:35:01;99270.52;;;13.23;59.76
44441;BME280;30146;52.268;20.944;2023-04-25T12:37:32;99272.01;;;13.25;59.71
44441;BME280;30146;52.268;20.944;2023-04-25T12:40:03;99272.64;;;13.26;59.60
44441;BME280;30146;52.268;20.944;2023-04-25T12:42:35;99274.16;;;13.27;59.60
44441;BME280;30146;52.268;20.944;2023-04-25T12:45:08;99271.55;;;13.28;59.70
44441;BME280;30146;52.268;20.944;2023-04-25T12:47:39;99274.04;;;13.30;59.39
44441;BME280;30146;52.268;20.944;2023-04-25T12:50:11;99276.95;;;13.32;59.45
44441;BME280;30146;52.268;20.944;2023-04-25T12:52:42;99277.08;;;13.33;59.30
44441;BME280;30146;52.268;20.944;2023-04-25T12:55:13;99276.40;;;13.33;59.19
44441;BME280;30146;52.268;20.944;2023-04-25T12:57:45;99272.91;;;13.34;59.16
44441;BME280;30146;52.268;20.944;2023-04-25T13:00:17;99272.56;;;13.34;59.14
44441;BME280;30146;52.268;20.944;2023-04-25T13:02:49;99270.39;;;13.33;58.87
44441;BME280;30146;52.268;20.944;2023-04-25T13:05:20;99271.30;;;13.31;59.15
44441;BME280;30146;52.268;20.944;2023-04-25T13:07:51;99269.95;;;13.29;59.00
44441;BME280;30146;52.268;20.944;2023-04-25T13:10:23;99269.39;;;13.26;58.83
44441;BME280;30146;52.268;20.944;2023-04-25T13:12:54;99261.27;;;13.23;58.86
44441;BME280;30146;52.268;20.944;2023-04-25T13:15:25;99256.81;;;13.23;59.07
44441;BME280;30146;52.268;20.944;2023-04-25T13:17:56;99261.31;;;13.22;59.11
44441;BME280;30146;52.268;20.944;2023-04-25T13:20:26;99260.65;;;13.21;59.19
44441;BME280;30146;52.268;20.944;2023-04-25T13:22:58;99258.88;;;13.22;59.30
44441;BME280;30146;52.268;20.944;2023-04-25T13:25:31;99257.32;;;13.23;59.27
44441;BME280;30146;52.268;20.944;2023-04-25T13:28:02;99259.94;;;13.22;59.06
44441;BME280;30146;52.268;20.944;2023-04-25T13:30:34;99260.34;;;13.20;59.18
44441;BME280;30146;52.268;20.944;2023-04-25T13:33:05;99257.02;;;13.21;59.35
44441;BME280;30146;52.268;20.944;2023-04-25T13:35:37;99255.67;;;13.22;59.31